Time;durP1;ratioP1;P1;durP2;ratioP2;P2;SDS_P1;SDS_P2;PMS_P1;PMS_P2;Temp;Humidity;BMP_temperature;BMP_pressure;BME280_temperature;BME280_humidity;BME280_pressure;Samples;Min_cycle;Max_cycle;Signal;HPM_P1;HPM_P2
2021/11/12 00:17:30;;;;;;;;;;;17.60;68.50;;;;;;10373260;28;20026;-44
2021/11/12 00:22:31;;;;;;;4.40;3.38;;;17.60;68.30;;;;;;10372331;28;20326;-48
2021/11/12 00:27:34;;;;;;;4.97;4.03;;;17.70;68.00;;;;;;10344793;28;20038;-43
2021/11/12 00:58:13;;;;;;;4.57;3.55;;;17.70;67.80;;;;;;10370759;28;20031;-44
2021/11/12 01:03:14;;;;;;;5.45;3.63;;;17.70;67.80;;;;;;10371429;28;20030;-43
2021/11/12 01:08:14;;;;;;;5.45;3.83;;;17.70;68.00;;;;;;10368549;28;20030;-42
2021/11/12 01:13:15;;;;;;;5.07;3.92;;;17.70;68.60;;;;;;10365799;28;20110;-43
2021/11/12 01:18:16;;;;;;;4.82;3.65;;;17.70;67.80;;;;;;10339644;28;20483;-42
2021/11/12 01:23:17;;;;;;;4.43;3.30;;;17.70;67.80;;;;;;10333351;28;20046;-42
2021/11/12 01:28:19;;;;;;;4.82;3.95;;;17.70;67.90;;;;;;10330730;28;20034;-43
2021/11/12 01:33:19;;;;;;;5.13;3.42;;;17.70;68.10;;;;;;10330461;28;20030;-42
2021/11/12 01:38:20;;;;;;;4.40;3.38;;;17.70;67.80;;;;;;10366062;28;20494;-43
2021/11/12 01:43:24;;;;;;;5.07;3.60;;;17.70;67.80;;;;;;10375423;28;20048;-43
2021/11/12 02:04:06;;;;;;;5.72;3.58;;;17.70;67.70;;;;;;10370036;28;20042;-43
2021/11/12 02:09:19;;;;;;;4.50;3.45;;;17.70;67.70;;;;;;10363273;28;20378;-42
2021/11/12 02:14:21;;;;;;;4.47;3.55;;;17.70;67.80;;;;;;10340762;28;20041;-43
2021/11/12 02:19:23;;;;;;;4.57;3.22;;;;;;;;;;10376677;28;20034;-42
2021/11/12 02:24:25;;;;;;;3.72;3.13;;;17.70;67.30;;;;;;10376709;28;20026;-43
2021/11/12 02:29:27;;;;;;;5.78;3.90;;;17.70;67.70;;;;;;10376649;28;20029;-43
2021/11/12 02:34:28;;;;;;;3.72;3.10;;;17.60;67.80;;;;;;10376087;28;20034;-45
2021/11/12 02:39:29;;;;;;;5.40;3.70;;;17.60;67.90;;;;;;10374727;28;20408;-45
2021/11/12 02:44:34;;;;;;;4.78;3.63;;;17.70;67.70;;;;;;10375794;28;20091;-44
2021/11/12 02:49:35;;;;;;;4.65;3.78;;;17.70;67.70;;;;;;10375736;28;20045;-44
2021/11/12 02:54:38;;;;;;;3.70;3.13;;;17.70;67.70;;;;;;10371056;28;20057;-45
2021/11/12 02:59:39;;;;;;;4.13;3.10;;;17.70;67.50;;;;;;10373979;28;20030;-43
2021/11/12 03:04:40;;;;;;;5.00;3.92;;;17.70;67.60;;;;;;10371590;28;20033;-43
2021/11/12 03:09:41;;;;;;;4.72;3.22;;;17.70;67.70;;;;;;10373156;28;20394;-43
2021/11/12 03:14:41;;;;;;;4.07;3.22;;;17.70;67.80;;;;;;10347420;28;20034;-44
2021/11/12 03:19:43;;;;;;;3.67;3.10;;;17.80;68.10;;;;;;10362580;28;20034;-43
2021/11/12 03:24:51;;;;;;;4.82;3.15;;;17.90;67.20;;;;;;10350481;28;20022;-43
2021/11/12 04:01:35;;;;;;;4.45;3.40;;;17.80;67.30;;;;;;10319382;28;20057;-43
2021/11/12 04:06:44;;;;;;;4.57;3.58;;;17.80;67.30;;;;;;10348386;28;20067;-44
2021/11/12 05:56:56;;;;;;;5.70;3.70;;;18.20;66.10;;;;;;10372430;28;20031;-43
2021/11/12 06:01:57;;;;;;;7.57;4.43;;;18.40;66.40;;;;;;10375134;28;20042;-43
2021/11/12 06:06:58;;;;;;;4.95;3.40;;;18.50;67.20;;;;;;10375465;28;20066;-43
2021/11/12 06:11:58;;;;;;;6.65;4.03;;;18.60;67.80;;;;;;10364927;28;20501;-43
2021/11/12 06:16:59;;;;;;;5.20;3.90;;;18.70;68.00;;;;;;10341265;28;20121;-43
2021/11/12 06:22:00;;;;;;;6.65;3.95;;;18.70;67.50;;;;;;10346723;28;20031;-45
2021/11/12 06:27:01;;;;;;;10.60;4.38;;;18.80;67.80;;;;;;10336608;28;20034;-46
2021/11/12 06:32:03;;;;;;;8.95;4.80;;;18.60;68.70;;;;;;10355874;28;20037;-49
2021/11/12 06:37:04;;;;;;;8.30;4.38;;;18.60;68.90;;;;;;10362223;28;20030;-43
2021/11/12 06:42:49;;;;;;;8.07;5.13;;;18.50;68.60;;;;;;10371478;28;20474;-46
2021/11/12 06:52:51;;;;;;;18.83;5.33;;;18.50;69.00;;;;;;10352633;28;20038;-47
2021/11/12 06:57:52;;;;;;;18.88;5.75;;;18.50;68.10;;;;;;10368866;28;20638;-50
2021/11/12 07:02:54;;;;;;;14.88;4.63;;;18.60;68.60;;;;;;10368541;28;20715;-47
2021/11/12 07:07:54;;;;;;;19.60;5.63;;;18.70;68.50;;;;;;10369903;28;20052;-47
2021/11/12 07:12:55;;;;;;;17.05;5.93;;;18.70;68.70;;;;;;10367016;28;20434;-46
2021/11/12 07:17:56;;;;;;;21.27;5.55;;;18.70;68.80;;;;;;10370710;28;20036;-44
2021/11/12 07:22:57;;;;;;;24.50;5.95;;;18.70;68.90;;;;;;10360873;28;20030;-46
2021/11/12 07:27:58;;;;;;;13.63;5.97;;;18.60;68.60;;;;;;10369027;28;20384;-50
2021/11/12 07:32:58;;;;;;;26.20;6.75;;;18.60;68.00;;;;;;10368055;28;20117;-48
2021/11/12 07:38:08;;;;;;;18.85;6.65;;;18.50;67.80;;;;;;10372697;28;20156;-46
2021/11/12 07:48:28;;;;;;;21.95;6.32;;;18.30;67.90;;;;;;10372927;28;19917;-44
2021/11/12 07:53:28;;;;;;;20.40;5.88;;;18.30;68.00;;;;;;10353792;28;20495;-45
2021/11/12 07:58:29;;;;;;;17.80;6.93;;;18.40;68.20;;;;;;10350125;28;20025;-50
2021/11/12 08:03:30;;;;;;;22.88;6.68;;;18.50;67.90;;;;;;10365060;28;20038;-48
2021/11/12 08:08:34;;;;;;;14.65;5.82;;;18.60;67.70;;;;;;10371713;28;20022;-48
2021/11/12 08:13:40;;;;;;;19.77;6.65;;;18.60;67.70;;;;;;10341486;28;20482;-47
2021/11/12 08:34:36;;;;;;;15.63;5.47;;;18.40;69.10;;;;;;10344098;28;20038;-43
2021/11/12 08:45:40;;;;;;;16.52;6.00;;;18.30;69.30;;;;;;10370458;28;20041;-45
2021/11/12 08:50:22;;;;;;;19.15;6.55;;;18.20;69.00;;;;;;10340341;28;20047;-43
2021/11/12 08:55:26;;;;;;;12.93;5.72;;;18.10;70.10;;;;;;10375270;28;20112;-47
2021/11/12 09:00:28;;;;;;;17.30;5.60;;;18.00;69.30;;;;;;10372047;28;20042;-44
2021/11/12 09:05:30;;;;;;;19.75;6.63;;;18.00;69.20;;;;;;10336631;28;20066;-44
2021/11/12 09:10:31;;;;;;;23.95;6.72;;;18.00;68.90;;;;;;10359501;28;20046;-44
2021/11/12 09:15:33;;;;;;;14.18;6.15;;;18.00;68.90;;;;;;10335313;28;20109;-45
2021/11/12 09:20:34;;;;;;;19.75;5.30;;;17.90;68.90;;;;;;10363571;28;20135;-44
2021/11/12 09:25:35;;;;;;;16.83;6.53;;;17.90;69.00;;;;;;10377448;28;20066;-45
2021/11/12 09:30:35;;;;;;;12.98;6.05;;;17.90;69.30;;;;;;10378047;28;20378;-49
2021/11/12 09:35:37;;;;;;;10.95;5.05;;;17.90;69.70;;;;;;10377679;28;20532;-45
2021/11/12 09:40:38;;;;;;;16.38;5.85;;;17.90;69.80;;;;;;10378116;28;20097;-44
2021/11/12 09:45:39;;;;;;;13.70;6.20;;;17.80;69.80;;;;;;10377572;28;20062;-44
2021/11/12 09:50:40;;;;;;;14.98;6.03;;;17.80;69.90;;;;;;10377360;28;20030;-45
2021/11/12 09:55:43;;;;;;;13.90;5.47;;;17.90;69.90;;;;;;10377309;28;20030;-45
2021/11/12 10:00:44;;;;;;;12.95;5.32;;;17.90;69.90;;;;;;10375896;28;20033;-46
2021/11/12 10:05:47;;;;;;;12.77;5.68;;;17.80;69.70;;;;;;10367791;28;20044;-44
2021/11/12 10:11:29;;;;;;;11.80;5.38;;;17.80;69.50;;;;;;10375169;28;20100;-46
2021/11/12 10:16:35;;;;;;;10.25;5.20;;;17.80;69.30;;;;;;10356895;28;20434;-47
2021/11/12 10:21:45;;;;;;;12.15;5.95;;;17.90;69.20;;;;;;10375704;28;20044;-45
2021/11/12 10:27:13;;;;;;;14.18;6.07;;;17.90;69.20;;;;;;10369156;28;20382;-47
2021/11/12 10:32:20;;;;;;;13.70;6.25;;;18.00;69.40;;;;;;10373062;28;20129;-44
2021/11/12 10:37:25;;;;;;;14.85;5.70;;;17.90;69.60;;;;;;10360940;28;20379;-45
2021/11/12 10:42:30;;;;;;;10.18;5.63;;;18.00;69.60;;;;;;10358904;28;20036;-47
2021/11/12 10:47:37;;;;;;;9.48;5.22;;;18.00;69.30;;;;;;10333461;28;20146;-47
2021/11/12 10:52:39;;;;;;;10.80;5.72;;;18.10;69.40;;;;;;10345869;28;20075;-48
2021/11/12 10:57:45;;;;;;;9.57;4.82;;;18.10;70.10;;;;;;10374988;28;20022;-46
2021/11/12 11:02:57;;;;;;;14.15;5.78;;;18.10;69.60;;;;;;10373324;28;20466;-46
2021/11/12 11:08:01;;;;;;;12.65;5.07;;;18.00;69.60;;;;;;10373059;28;20041;-49
2021/11/12 11:13:18;;;;;;;19.00;6.03;;;18.00;69.80;;;;;;10354123;28;20030;-49
2021/11/12 11:18:37;;;;;;;18.92;6.30;;;18.00;70.00;;;;;;10357100;28;20037;-44
2021/11/12 11:23:52;;;;;;;13.27;6.60;;;18.10;69.80;;;;;;10372330;28;20033;-45
2021/11/12 11:28:58;;;;;;;14.88;5.95;;;18.10;69.50;;;;;;10352335;28;20092;-45
2021/11/12 11:33:59;;;;;;;13.13;5.50;;;18.20;69.60;;;;;;10333451;28;20371;-47
2021/11/12 11:39:06;;;;;;;9.50;5.63;;;18.30;69.80;;;;;;10358770;28;20026;-47
2021/11/12 11:44:07;;;;;;;9.32;5.13;;;18.30;71.50;;;;;;10372742;28;20034;-45
2021/11/12 11:49:35;;;;;;;22.25;6.95;;;18.40;71.60;;;;;;10372888;28;20505;-45
2021/11/12 11:54:46;;;;;;;14.80;5.18;;;18.40;70.50;;;;;;10360177;28;20064;-60
2021/11/12 11:59:47;;;;;;;13.52;6.05;;;18.20;70.50;;;;;;10346732;28;20030;-56
2021/11/12 12:04:57;;;;;;;17.63;5.05;;;18.10;70.90;;;;;;10370630;28;20042;-58
2021/11/12 12:10:18;;;;;;;12.93;5.90;;;18.10;71.10;;;;;;10363634;28;20041;-56
2021/11/12 12:15:22;;;;;;;16.98;6.10;;;18.00;71.20;;;;;;10350000;28;20081;-57
2021/11/12 13:20:19;;;;;;;18.40;7.13;;;17.70;72.40;;;;;;10354338;28;20479;-61
2021/11/12 13:25:41;;;;;;;17.30;6.82;;;17.80;72.40;;;;;;10350370;28;20018;-60
2021/11/12 13:30:51;;;;;;;21.42;7.65;;;17.90;71.90;;;;;;10353643;28;20037;-59
2021/11/12 13:35:52;;;;;;;28.92;7.53;;;18.00;71.80;;;;;;10354192;28;20095;-59
2021/11/12 13:41:03;;;;;;;23.85;8.38;;;17.90;71.40;;;;;;10363507;28;20508;-59
2021/11/12 13:46:04;;;;;;;24.52;8.98;;;17.90;71.30;;;;;;10363168;28;20808;-59
2021/11/12 13:51:05;;;;;;;32.40;9.45;;;17.80;71.50;;;;;;10368951;28;20529;-60
2021/11/12 13:56:10;;;;;;;20.98;8.32;;;17.90;70.80;;;;;;10373220;28;20109;-59
2021/11/12 14:01:20;;;;;;;19.27;8.35;;;17.90;70.60;;;;;;10376689;28;20032;-58
2021/11/12 14:06:37;;;;;;;23.38;9.85;;;17.90;70.00;;;;;;10349308;28;20042;-59
2021/11/12 14:11:38;;;;;;;19.40;9.32;;;18.00;69.40;;;;;;10359156;28;20023;-58
2021/11/12 14:16:52;;;;;;;20.05;10.10;;;18.10;68.70;;;;;;10339556;28;20032;-59
2021/11/12 14:22:06;;;;;;;19.73;10.73;;;18.10;69.00;;;;;;10359985;28;20030;-59
2021/11/12 14:27:23;;;;;;;19.55;9.90;;;18.20;69.00;;;;;;10337478;28;20038;-58
2021/11/12 14:44:03;;;;;;;24.97;11.60;;;17.90;70.00;;;;;;10366656;28;20046;-58
2021/11/12 14:54:27;;;;;;;20.27;9.13;;;17.90;69.40;;;;;;10373401;28;20437;-58
2021/11/12 14:59:28;;;;;;;15.15;9.02;;;18.10;69.50;;;;;;10374242;28;20036;-58
2021/11/12 15:04:29;;;;;;;21.63;10.18;;;18.10;69.20;;;;;;10344304;28;20034;-57
2021/11/12 15:09:32;;;;;;;31.00;10.13;;;18.00;69.60;;;;;;10372982;28;20056;-57
2021/11/12 15:14:36;;;;;;;25.77;9.98;;;18.10;69.20;;;;;;10347282;28;20065;-58
2021/11/12 15:19:42;;;;;;;25.30;10.18;;;18.10;69.50;;;;;;10354109;28;20533;-58
2021/11/12 15:24:51;;;;;;;30.27;11.52;;;18.10;69.50;;;;;;10369480;28;20031;-59
2021/11/12 15:30:06;;;;;;;20.95;8.80;;;18.20;70.00;;;;;;10373079;28;20069;-61
2021/11/12 15:35:16;;;;;;;20.42;10.15;;;18.20;69.50;;;;;;10372975;28;20156;-59
2021/11/12 15:40:27;;;;;;;16.95;8.50;;;18.10;69.70;;;;;;10359447;28;20475;-58
2021/11/12 15:50:47;;;;;;;17.30;8.25;;;18.30;69.60;;;;;;10372626;28;20041;-60
2021/11/12 16:17:08;;;;;;;24.38;8.23;;;18.20;70.90;;;;;;10341000;28;20043;-62
2021/11/12 16:27:27;;;;;;;23.75;8.40;;;18.20;71.00;;;;;;10352257;28;20042;-60
2021/11/12 16:32:38;;;;;;;19.38;7.75;;;18.10;71.50;;;;;;10368349;28;20088;-60
2021/11/12 16:37:39;;;;;;;16.17;7.00;;;18.00;71.80;;;;;;10357422;28;20056;-60
2021/11/12 16:58:32;;;;;;;16.60;7.23;;;18.00;72.10;;;;;;10360801;28;20058;-61
2021/11/12 17:14:21;;;;;;;23.63;9.00;;;18.00;69.00;;;;;;10362257;28;20561;-61
2021/11/12 17:46:30;;;;;;;14.02;6.85;;;18.70;69.60;;;;;;10377983;28;20398;-62
2021/11/12 17:51:39;;;;;;;14.30;6.00;;;18.70;69.40;;;;;;10375634;28;20038;-61
2021/11/12 18:02:04;;;;;;;12.20;6.72;;;18.60;70.30;;;;;;10352621;28;20034;-58
2021/11/12 18:12:36;;;;;;;8.63;5.57;;;18.50;70.30;;;;;;10363142;28;20497;-60
2021/11/12 21:47:15;;;;;;;4.68;3.83;;;17.50;71.70;;;;;;10350374;28;20066;-59
2021/11/12 21:52:16;;;;;;;6.70;3.70;;;17.40;71.60;;;;;;10337705;28;20374;-59
2021/11/12 21:57:17;;;;;;;5.57;3.75;;;17.40;71.70;;;;;;10342399;28;20030;-60
2021/11/12 22:02:21;;;;;;;5.00;3.75;;;17.40;71.70;;;;;;10337388;28;20034;-59
2021/11/12 22:07:22;;;;;;;5.40;3.53;;;17.30;71.60;;;;;;10353157;28;20364;-59
2021/11/12 22:12:23;;;;;;;5.07;3.35;;;17.30;71.80;;;;;;10354421;28;20034;-59
2021/11/12 22:17:24;;;;;;;4.95;3.65;;;17.40;71.60;;;;;;10337105;28;20081;-60
2021/11/12 22:22:25;;;;;;;6.95;4.18;;;17.40;71.40;;;;;;10336572;28;20062;-59
2021/11/12 22:27:26;;;;;;;5.82;3.25;;;17.40;71.30;;;;;;10335648;28;20049;-59
2021/11/12 22:32:26;;;;;;;6.80;3.50;;;17.40;71.20;;;;;;10318720;28;20386;-59
2021/11/12 22:37:28;;;;;;;5.00;3.83;;;17.40;71.30;;;;;;10347944;28;20041;-59
2021/11/12 22:42:29;;;;;;;4.53;3.42;;;17.40;71.30;;;;;;10355266;28;20069;-59
2021/11/12 22:47:30;;;;;;;6.35;3.40;;;17.40;71.10;;;;;;10374931;28;20050;-59
2021/11/12 22:52:30;;;;;;;4.95;3.17;;;17.50;71.00;;;;;;10374158;28;20093;-59
2021/11/12 22:57:31;;;;;;;6.20;3.17;;;17.50;70.80;;;;;;10374689;28;20087;-59
2021/11/12 23:02:32;;;;;;;4.32;3.00;;;17.50;70.70;;;;;;10375369;28;20034;-59
2021/11/12 23:07:33;;;;;;;3.63;2.80;;;17.50;70.70;;;;;;10374317;28;20026;-60
2021/11/12 23:12:34;;;;;;;4.30;3.40;;;17.60;70.50;;;;;;10353674;28;20038;-59
2021/11/12 23:17:34;;;;;;;6.00;3.25;;;17.50;70.40;;;;;;10334703;28;20113;-59
2021/11/12 23:22:38;;;;;;;4.63;3.50;;;17.60;70.40;;;;;;10354893;28;20057;-59
2021/11/12 23:27:39;;;;;;;4.50;3.17;;;17.60;70.20;;;;;;10373489;28;20393;-59
2021/11/12 23:32:41;;;;;;;5.07;3.35;;;17.60;70.20;;;;;;10374486;28;20045;-59
2021/11/12 23:37:41;;;;;;;5.43;3.13;;;17.60;70.30;;;;;;10361083;28;20026;-59
2021/11/12 23:42:44;;;;;;;4.28;3.20;;;17.60;70.40;;;;;;10354137;28;20033;-59
2021/11/12 23:47:45;;;;;;;4.05;2.72;;;17.50;70.40;;;;;;10373994;28;20124;-59
2021/11/12 23:52:47;;;;;;;3.38;3.08;;;17.50;70.60;;;;;;10356018;28;20034;-59
2021/11/12 23:57:48;;;;;;;4.38;2.35;;;17.60;70.50;;;;;;10373669;28;20050;-60
